Terminal Aerodrome Forecast
Issued by NWS

Home | Current Version | Previous Version | Text Only | Print | Product List | Glossary On
Versions: 1 2 3 4 5 6 7 8 9 10 11 12 13 14 15 16 17 18 19 20 21 22 23 24 25 26 27 28 29 30 31 32 33 34 35 36 37 38 39 40 41 42 43 44 45 46 47
000
FTAK31 PAFA 300144 AAA
TAFAFA
TAF AMD
PAFA 300144Z 3002/3106 33004KT P6SM -SHRA SCT020 BKN060 OVC100
     FM300600 VRB03KT 6SM BR VCSH SCT030 OVC050
     FM301400 VRB03KT 3SM BR SCT004 OVC050
     FM302100 25005KT P6SM -SHRA BKN030 OVC050=

USA.gov is the U.S. government's official web portal to all federal, state and local government web resources and services.